KALX

Thomas C Russell Field Airport

Alexander City, Alabama, USA
METAR KALX 190835Z AUTO 01004KT 10SM CLR 21/21 A2996 RMK AO2 T02110211
Observed Flight Rules
Sep-19 @ 08:35 UTC (29 minutes ago) Visual Flight Rules
Wind Visibility Clouds
10° at 4 knots 10 miles
  • Clear skies
Temperatures Readings
Current 21°C / 70°F
Dewpoint 21°C / 70°F
Humidity 100%
Altimeter 29.96" Hg
Pressure 1015 hPa
Elevation 209
METAR KALX 190835Z AUTO 01004KT 10SM CLR 21/21 A2996 RMK AO2 T02110211
Observed Flight Rules
Sep-19 @ 08:35 UTC
(29 minutes ago)
VFR
Wind Visibility
10° at 4 knots 10 miles
Clouds
  • Clear skies
Temperature Dewpoint
21°C / 70°F 21°C / 70°F
Humidity Altimeter Pressure
100% 29.96" Hg 1015 hPa